sensor_id;sensor_type;location;lat;lon;timestamp;temperature;humidity
63802;DHT22;49949;43.060;25.624;2023-03-11T00:00:57;14.90;99.90
63802;DHT22;49949;43.060;25.624;2023-03-11T00:03:24;14.90;99.90
63802;DHT22;49949;43.060;25.624;2023-03-11T00:05:59;14.90;99.90
63802;DHT22;49949;43.060;25.624;2023-03-11T00:08:25;14.90;99.90
63802;DHT22;49949;43.060;25.624;2023-03-11T00:10:55;14.90;99.90
63802;DHT22;49949;43.060;25.624;2023-03-11T00:13:27;15.00;99.90
63802;DHT22;49949;43.060;25.624;2023-03-11T00:15:54;15.00;99.90
63802;DHT22;49949;43.060;25.624;2023-03-11T00:18:25;15.00;99.90
63802;DHT22;49949;43.060;25.624;2023-03-11T00:20:54;15.00;99.90
63802;DHT22;49949;43.060;25.624;2023-03-11T00:23:29;15.00;99.90
63802;DHT22;49949;43.060;25.624;2023-03-11T00:25:55;15.00;99.90
63802;DHT22;49949;43.060;25.624;2023-03-11T00:28:20;15.00;99.90
63802;DHT22;49949;43.060;25.624;2023-03-11T00:31:06;14.90;99.90
63802;DHT22;49949;43.060;25.624;2023-03-11T00:33:31;14.90;99.90
63802;DHT22;49949;43.060;25.624;2023-03-11T00:35:57;14.90;99.90
63802;DHT22;49949;43.060;25.624;2023-03-11T00:38:23;14.90;99.90
63802;DHT22;49949;43.060;25.624;2023-03-11T00:40:50;14.90;99.90
63802;DHT22;49949;43.060;25.624;2023-03-11T00:43:15;14.90;99.90
63802;DHT22;49949;43.060;25.624;2023-03-11T00:45:41;14.90;99.90
63802;DHT22;49949;43.060;25.624;2023-03-11T00:48:08;14.90;99.90
63802;DHT22;49949;43.060;25.624;2023-03-11T00:50:35;14.80;99.90
63802;DHT22;49949;43.060;25.624;2023-03-11T00:53:03;14.80;99.90
63802;DHT22;49949;43.060;25.624;2023-03-11T00:55:36;14.80;99.90
63802;DHT22;49949;43.060;25.624;2023-03-11T00:58:07;14.80;99.90
63802;DHT22;49949;43.060;25.624;2023-03-11T01:00:33;14.80;99.90
63802;DHT22;49949;43.060;25.624;2023-03-11T01:02:59;14.80;99.90
63802;DHT22;49949;43.060;25.624;2023-03-11T01:05:27;14.80;99.90
63802;DHT22;49949;43.060;25.624;2023-03-11T01:07:58;14.80;99.90
63802;DHT22;49949;43.060;25.624;2023-03-11T01:10:36;14.80;99.90
63802;DHT22;49949;43.060;25.624;2023-03-11T01:13:07;14.80;99.90
63802;DHT22;49949;43.060;25.624;2023-03-11T01:15:36;14.80;99.90
63802;DHT22;49949;43.060;25.624;2023-03-11T01:18:04;14.80;99.90
63802;DHT22;49949;43.060;25.624;2023-03-11T01:20:30;14.70;99.90
63802;DHT22;49949;43.060;25.624;2023-03-11T01:22:56;14.70;99.90
63802;DHT22;49949;43.060;25.624;2023-03-11T01:25:23;14.60;99.90
63802;DHT22;49949;43.060;25.624;2023-03-11T01:27:52;14.70;99.90
63802;DHT22;49949;43.060;25.624;2023-03-11T01:30:46;14.70;99.90
63802;DHT22;49949;43.060;25.624;2023-03-11T01:33:25;14.60;99.90
63802;DHT22;49949;43.060;25.624;2023-03-11T01:35:53;14.70;99.90
63802;DHT22;49949;43.060;25.624;2023-03-11T01:38:23;14.70;99.90
63802;DHT22;49949;43.060;25.624;2023-03-11T01:40:54;14.70;99.90
63802;DHT22;49949;43.060;25.624;2023-03-11T01:48:36;14.60;99.90
63802;DHT22;49949;43.060;25.624;2023-03-11T01:51:03;14.50;99.90
63802;DHT22;49949;43.060;25.624;2023-03-11T01:53:29;14.40;99.90
63802;DHT22;49949;43.060;25.624;2023-03-11T01:56:00;14.40;99.90
63802;DHT22;49949;43.060;25.624;2023-03-11T01:58:27;14.30;99.90
63802;DHT22;49949;43.060;25.624;2023-03-11T02:00:58;14.10;99.90
63802;DHT22;49949;43.060;25.624;2023-03-11T02:03:33;13.90;99.90
63802;DHT22;49949;43.060;25.624;2023-03-11T02:06:13;13.70;99.90
63802;DHT22;49949;43.060;25.624;2023-03-11T02:08:44;13.40;99.90
63802;DHT22;49949;43.060;25.624;2023-03-11T02:11:20;13.30;99.90
63802;DHT22;49949;43.060;25.624;2023-03-11T02:13:49;13.20;99.90
63802;DHT22;49949;43.060;25.624;2023-03-11T02:16:20;13.10;99.90
63802;DHT22;49949;43.060;25.624;2023-03-11T02:18:46;12.90;99.90
63802;DHT22;49949;43.060;25.624;2023-03-11T02:21:23;12.70;99.90
63802;DHT22;49949;43.060;25.624;2023-03-11T02:23:56;12.50;99.90
63802;DHT22;49949;43.060;25.624;2023-03-11T02:29:19;12.10;99.90
63802;DHT22;49949;43.060;25.624;2023-03-11T02:31:49;11.90;99.90
63802;DHT22;49949;43.060;25.624;2023-03-11T02:34:23;11.70;99.90
63802;DHT22;49949;43.060;25.624;2023-03-11T02:36:49;11.60;99.90
63802;DHT22;49949;43.060;25.624;2023-03-11T02:39:15;11.50;99.90
63802;DHT22;49949;43.060;25.624;2023-03-11T02:41:48;11.30;99.90
63802;DHT22;49949;43.060;25.624;2023-03-11T02:44:14;11.30;99.90
63802;DHT22;49949;43.060;25.624;2023-03-11T02:46:42;11.20;99.90
63802;DHT22;49949;43.060;25.624;2023-03-11T02:49:11;11.10;99.90
63802;DHT22;49949;43.060;25.624;2023-03-11T02:51:37;11.10;99.90
63802;DHT22;49949;43.060;25.624;2023-03-11T02:54:06;11.10;99.90
63802;DHT22;49949;43.060;25.624;2023-03-11T02:56:31;11.10;99.90
63802;DHT22;49949;43.060;25.624;2023-03-11T02:58:57;11.10;99.90
63802;DHT22;49949;43.060;25.624;2023-03-11T03:01:26;11.10;99.90
63802;DHT22;49949;43.060;25.624;2023-03-11T03:03:57;11.00;99.90
63802;DHT22;49949;43.060;25.624;2023-03-11T03:06:23;11.00;99.90
63802;DHT22;49949;43.060;25.624;2023-03-11T03:08:53;10.90;99.90
63802;DHT22;49949;43.060;25.624;2023-03-11T03:11:21;10.90;99.90
63802;DHT22;49949;43.060;25.624;2023-03-11T03:13:49;10.80;99.90
63802;DHT22;49949;43.060;25.624;2023-03-11T03:16:18;10.80;99.90
63802;DHT22;49949;43.060;25.624;2023-03-11T03:18:53;10.80;99.90
63802;DHT22;49949;43.060;25.624;2023-03-11T03:21:21;10.70;99.90
63802;DHT22;49949;43.060;25.624;2023-03-11T03:23:47;10.70;99.90
63802;DHT22;49949;43.060;25.624;2023-03-11T03:26:25;10.60;99.90
63802;DHT22;49949;43.060;25.624;2023-03-11T03:29:04;10.50;99.90
63802;DHT22;49949;43.060;25.624;2023-03-11T03:31:30;10.60;99.90
63802;DHT22;49949;43.060;25.624;2023-03-11T03:33:56;10.60;99.90
63802;DHT22;49949;43.060;25.624;2023-03-11T03:36:22;10.70;99.90
63802;DHT22;49949;43.060;25.624;2023-03-11T03:38:56;10.60;99.90
63802;DHT22;49949;43.060;25.624;2023-03-11T03:41:25;10.60;99.90
63802;DHT22;49949;43.060;25.624;2023-03-11T03:43:51;10.60;99.90
63802;DHT22;49949;43.060;25.624;2023-03-11T03:46:18;10.60;99.90
63802;DHT22;49949;43.060;25.624;2023-03-11T03:48:44;10.70;99.90
63802;DHT22;49949;43.060;25.624;2023-03-11T03:51:11;10.80;99.90
63802;DHT22;49949;43.060;25.624;2023-03-11T03:53:38;10.80;99.90
63802;DHT22;49949;43.060;25.624;2023-03-11T03:56:06;10.70;99.90
63802;DHT22;49949;43.060;25.624;2023-03-11T03:58:38;10.70;99.90
63802;DHT22;49949;43.060;25.624;2023-03-11T04:01:03;10.60;99.90
63802;DHT22;49949;43.060;25.624;2023-03-11T04:03:29;10.50;99.90
63802;DHT22;49949;43.060;25.624;2023-03-11T04:08:39;10.50;99.90
63802;DHT22;49949;43.060;25.624;2023-03-11T04:11:07;10.50;99.90
63802;DHT22;49949;43.060;25.624;2023-03-11T04:13:33;10.40;99.90
63802;DHT22;49949;43.060;25.624;2023-03-11T04:15:59;10.60;99.90
63802;DHT22;49949;43.060;25.624;2023-03-11T04:18:26;10.80;99.90
63802;DHT22;49949;43.060;25.624;2023-03-11T04:21:04;10.90;99.90
63802;DHT22;49949;43.060;25.624;2023-03-11T04:23:29;11.10;99.90
63802;DHT22;49949;43.060;25.624;2023-03-11T04:25:55;11.20;99.90
63802;DHT22;49949;43.060;25.624;2023-03-11T04:28:22;11.30;99.90
63802;DHT22;49949;43.060;25.624;2023-03-11T04:30:47;11.30;99.90
63802;DHT22;49949;43.060;25.624;2023-03-11T04:33:13;11.40;99.90
63802;DHT22;49949;43.060;25.624;2023-03-11T04:35:44;11.40;99.90
63802;DHT22;49949;43.060;25.624;2023-03-11T04:38:10;11.40;99.90
63802;DHT22;49949;43.060;25.624;2023-03-11T04:40:43;11.40;99.90
63802;DHT22;49949;43.060;25.624;2023-03-11T04:43:49;11.40;99.90
63802;DHT22;49949;43.060;25.624;2023-03-11T04:46:15;11.50;99.90
63802;DHT22;49949;43.060;25.624;2023-03-11T04:48:40;11.50;99.90
63802;DHT22;49949;43.060;25.624;2023-03-11T04:51:06;11.50;99.90
63802;DHT22;49949;43.060;25.624;2023-03-11T04:53:35;11.60;99.90
63802;DHT22;49949;43.060;25.624;2023-03-11T04:56:04;11.70;99.90
63802;DHT22;49949;43.060;25.624;2023-03-11T04:58:31;11.70;99.90
63802;DHT22;49949;43.060;25.624;2023-03-11T05:01:12;11.80;99.90
63802;DHT22;49949;43.060;25.624;2023-03-11T05:03:37;11.90;99.90
63802;DHT22;49949;43.060;25.624;2023-03-11T05:06:05;12.00;99.90
63802;DHT22;49949;43.060;25.624;2023-03-11T05:11:04;12.00;99.90
63802;DHT22;49949;43.060;25.624;2023-03-11T05:13:31;12.10;99.90
63802;DHT22;49949;43.060;25.624;2023-03-11T05:15:57;12.20;99.90
63802;DHT22;49949;43.060;25.624;2023-03-11T05:18:35;12.20;99.90
63802;DHT22;49949;43.060;25.624;2023-03-11T05:21:09;12.20;99.90
63802;DHT22;49949;43.060;25.624;2023-03-11T05:23:43;12.20;99.90
63802;DHT22;49949;43.060;25.624;2023-03-11T05:26:24;12.30;99.90
63802;DHT22;49949;43.060;25.624;2023-03-11T05:29:09;12.30;99.90
63802;DHT22;49949;43.060;25.624;2023-03-11T05:31:45;12.30;99.90
63802;DHT22;49949;43.060;25.624;2023-03-11T05:34:13;12.30;99.90
63802;DHT22;49949;43.060;25.624;2023-03-11T05:36:55;12.30;99.90
63802;DHT22;49949;43.060;25.624;2023-03-11T05:39:23;12.30;99.90
63802;DHT22;49949;43.060;25.624;2023-03-11T05:41:53;12.30;99.90
63802;DHT22;49949;43.060;25.624;2023-03-11T05:44:32;12.20;99.90
63802;DHT22;49949;43.060;25.624;2023-03-11T05:46:58;12.20;99.90
63802;DHT22;49949;43.060;25.624;2023-03-11T05:49:26;12.20;99.90
63802;DHT22;49949;43.060;25.624;2023-03-11T05:54:44;12.00;99.90
63802;DHT22;49949;43.060;25.624;2023-03-11T05:57:35;11.80;99.90
63802;DHT22;49949;43.060;25.624;2023-03-11T06:00:01;11.60;99.90
63802;DHT22;49949;43.060;25.624;2023-03-11T06:02:27;11.40;99.90
63802;DHT22;49949;43.060;25.624;2023-03-11T06:04:55;11.30;99.90
63802;DHT22;49949;43.060;25.624;2023-03-11T06:07:21;11.20;99.90
63802;DHT22;49949;43.060;25.624;2023-03-11T06:09:52;11.20;99.90
63802;DHT22;49949;43.060;25.624;2023-03-11T06:12:34;11.20;99.90
63802;DHT22;49949;43.060;25.624;2023-03-11T06:15:00;11.20;99.90
63802;DHT22;49949;43.060;25.624;2023-03-11T06:18:07;11.20;99.90
63802;DHT22;49949;43.060;25.624;2023-03-11T06:20:33;11.30;99.90
63802;DHT22;49949;43.060;25.624;2023-03-11T06:22:59;11.30;99.90
63802;DHT22;49949;43.060;25.624;2023-03-11T06:29:07;11.30;99.90
63802;DHT22;49949;43.060;25.624;2023-03-11T06:31:55;11.40;99.90
63802;DHT22;49949;43.060;25.624;2023-03-11T06:34:21;11.60;99.90
63802;DHT22;49949;43.060;25.624;2023-03-11T06:36:48;11.70;99.90
63802;DHT22;49949;43.060;25.624;2023-03-11T06:39:23;11.70;99.90
63802;DHT22;49949;43.060;25.624;2023-03-11T06:41:51;11.90;99.90
63802;DHT22;49949;43.060;25.624;2023-03-11T06:47:41;12.10;99.90
63802;DHT22;49949;43.060;25.624;2023-03-11T06:50:07;12.40;99.90
63802;DHT22;49949;43.060;25.624;2023-03-11T06:52:34;12.80;99.90
63802;DHT22;49949;43.060;25.624;2023-03-11T06:55:07;13.10;99.90
63802;DHT22;49949;43.060;25.624;2023-03-11T06:57:53;13.40;99.90
63802;DHT22;49949;43.060;25.624;2023-03-11T07:00:18;13.60;99.90
63802;DHT22;49949;43.060;25.624;2023-03-11T07:02:53;13.80;99.90
63802;DHT22;49949;43.060;25.624;2023-03-11T07:05:44;13.90;99.90
63802;DHT22;49949;43.060;25.624;2023-03-11T07:08:09;14.10;99.90
63802;DHT22;49949;43.060;25.624;2023-03-11T07:10:36;14.10;99.90
63802;DHT22;49949;43.060;25.624;2023-03-11T07:13:10;14.10;99.90
63802;DHT22;49949;43.060;25.624;2023-03-11T07:16:03;14.20;99.90
63802;DHT22;49949;43.060;25.624;2023-03-11T07:18:30;14.20;99.90
63802;DHT22;49949;43.060;25.624;2023-03-11T07:20:56;14.30;99.90
63802;DHT22;49949;43.060;25.624;2023-03-11T07:23:25;14.30;99.90
63802;DHT22;49949;43.060;25.624;2023-03-11T07:25:52;14.20;99.90
63802;DHT22;49949;43.060;25.624;2023-03-11T07:28:30;14.10;99.90
63802;DHT22;49949;43.060;25.624;2023-03-11T07:40:37;14.40;99.90
63802;DHT22;49949;43.060;25.624;2023-03-11T07:43:03;14.40;99.90
63802;DHT22;49949;43.060;25.624;2023-03-11T07:45:28;14.50;99.90
63802;DHT22;49949;43.060;25.624;2023-03-11T07:47:54;14.50;99.90
63802;DHT22;49949;43.060;25.624;2023-03-11T07:50:26;14.50;99.90
63802;DHT22;49949;43.060;25.624;2023-03-11T07:53:04;14.60;99.90
63802;DHT22;49949;43.060;25.624;2023-03-11T07:58:39;15.00;99.90
63802;DHT22;49949;43.060;25.624;2023-03-11T08:01:06;15.20;99.90
63802;DHT22;49949;43.060;25.624;2023-03-11T08:03:32;15.50;99.90
63802;DHT22;49949;43.060;25.624;2023-03-11T08:09:17;15.70;99.90
63802;DHT22;49949;43.060;25.624;2023-03-11T08:11:43;16.00;99.90
63802;DHT22;49949;43.060;25.624;2023-03-11T08:14:09;16.40;99.90
63802;DHT22;49949;43.060;25.624;2023-03-11T08:16:35;16.70;99.90
63802;DHT22;49949;43.060;25.624;2023-03-11T08:19:01;17.00;99.90
63802;DHT22;49949;43.060;25.624;2023-03-11T08:28:09;17.00;99.90
63802;DHT22;49949;43.060;25.624;2023-03-11T08:30:38;16.90;99.90
63802;DHT22;49949;43.060;25.624;2023-03-11T08:33:04;16.90;99.90
63802;DHT22;49949;43.060;25.624;2023-03-11T08:35:30;16.70;99.90
63802;DHT22;49949;43.060;25.624;2023-03-11T08:41:03;16.40;99.90
63802;DHT22;49949;43.060;25.624;2023-03-11T08:43:29;16.20;99.90
63802;DHT22;49949;43.060;25.624;2023-03-11T08:45:54;16.00;99.90
63802;DHT22;49949;43.060;25.624;2023-03-11T08:48:26;16.00;99.90
63802;DHT22;49949;43.060;25.624;2023-03-11T08:51:08;15.90;99.90
63802;DHT22;49949;43.060;25.624;2023-03-11T08:56:15;16.20;99.90
63802;DHT22;49949;43.060;25.624;2023-03-11T08:58:41;16.20;99.90
63802;DHT22;49949;43.060;25.624;2023-03-11T09:01:14;16.20;99.90
63802;DHT22;49949;43.060;25.624;2023-03-11T09:03:40;16.00;99.90
63802;DHT22;49949;43.060;25.624;2023-03-11T09:06:09;16.00;99.90
63802;DHT22;49949;43.060;25.624;2023-03-11T09:08:36;16.10;99.90
63802;DHT22;49949;43.060;25.624;2023-03-11T09:11:04;16.20;99.90
63802;DHT22;49949;43.060;25.624;2023-03-11T09:13:46;16.40;99.90
63802;DHT22;49949;43.060;25.624;2023-03-11T09:16:16;16.60;99.90
63802;DHT22;49949;43.060;25.624;2023-03-11T09:18:42;16.80;99.90
63802;DHT22;49949;43.060;25.624;2023-03-11T09:24:13;17.00;99.90
63802;DHT22;49949;43.060;25.624;2023-03-11T09:26:44;17.10;99.90
63802;DHT22;49949;43.060;25.624;2023-03-11T09:29:57;17.20;99.90
63802;DHT22;49949;43.060;25.624;2023-03-11T09:32:43;17.10;99.90
63802;DHT22;49949;43.060;25.624;2023-03-11T09:35:15;17.10;99.90
63802;DHT22;49949;43.060;25.624;2023-03-11T09:37:43;17.20;99.90
63802;DHT22;49949;43.060;25.624;2023-03-11T09:40:27;17.30;99.90
63802;DHT22;49949;43.060;25.624;2023-03-11T09:43:05;17.00;99.90
63802;DHT22;49949;43.060;25.624;2023-03-11T09:45:35;17.10;99.90
63802;DHT22;49949;43.060;25.624;2023-03-11T09:51:04;18.30;99.90
63802;DHT22;49949;43.060;25.624;2023-03-11T09:54:15;18.80;99.90
63802;DHT22;49949;43.060;25.624;2023-03-11T09:56:45;18.80;99.20
63802;DHT22;49949;43.060;25.624;2023-03-11T09:59:26;19.10;97.20
63802;DHT22;49949;43.060;25.624;2023-03-11T10:01:54;19.20;97.50
63802;DHT22;49949;43.060;25.624;2023-03-11T10:04:24;19.20;96.30
63802;DHT22;49949;43.060;25.624;2023-03-11T10:06:52;19.30;95.70
63802;DHT22;49949;43.060;25.624;2023-03-11T10:09:51;18.40;95.70
63802;DHT22;49949;43.060;25.624;2023-03-11T10:15:19;18.10;97.60
63802;DHT22;49949;43.060;25.624;2023-03-11T10:20:41;17.90;97.60
63802;DHT22;49949;43.060;25.624;2023-03-11T10:26:12;17.60;99.00
63802;DHT22;49949;43.060;25.624;2023-03-11T10:28:41;17.60;98.30
63802;DHT22;49949;43.060;25.624;2023-03-11T10:33:59;17.40;98.00
63802;DHT22;49949;43.060;25.624;2023-03-11T10:36:28;17.30;99.30
63802;DHT22;49949;43.060;25.624;2023-03-11T10:38:59;17.20;96.40
63802;DHT22;49949;43.060;25.624;2023-03-11T10:41:30;17.10;98.60
63802;DHT22;49949;43.060;25.624;2023-03-11T10:44:03;17.10;99.90
63802;DHT22;49949;43.060;25.624;2023-03-11T10:46:33;17.30;99.70
63802;DHT22;49949;43.060;25.624;2023-03-11T10:48:59;17.50;96.10
63802;DHT22;49949;43.060;25.624;2023-03-11T10:51:33;17.40;98.20
63802;DHT22;49949;43.060;25.624;2023-03-11T10:53:59;17.40;97.20
63802;DHT22;49949;43.060;25.624;2023-03-11T10:59:03;17.60;97.20
63802;DHT22;49949;43.060;25.624;2023-03-11T11:01:29;17.70;97.80
63802;DHT22;49949;43.060;25.624;2023-03-11T11:03:57;17.70;96.30
63802;DHT22;49949;43.060;25.624;2023-03-11T11:06:58;17.60;96.30
63802;DHT22;49949;43.060;25.624;2023-03-11T11:09:43;17.50;91.80
63802;DHT22;49949;43.060;25.624;2023-03-11T11:12:15;17.60;95.20
63802;DHT22;49949;43.060;25.624;2023-03-11T11:14:46;17.60;96.20
63802;DHT22;49949;43.060;25.624;2023-03-11T11:17:33;17.50;92.00
63802;DHT22;49949;43.060;25.624;2023-03-11T11:20:00;17.60;97.00
63802;DHT22;49949;43.060;25.624;2023-03-11T11:22:38;17.60;94.50
63802;DHT22;49949;43.060;25.624;2023-03-11T11:28:01;17.60;95.50
63802;DHT22;49949;43.060;25.624;2023-03-11T11:30:27;17.80;92.60
63802;DHT22;49949;43.060;25.624;2023-03-11T11:33:03;18.00;94.80
63802;DHT22;49949;43.060;25.624;2023-03-11T11:35:48;18.20;90.00
63802;DHT22;49949;43.060;25.624;2023-03-11T11:38:16;18.20;92.60
63802;DHT22;49949;43.060;25.624;2023-03-11T11:40:42;18.10;90.10
63802;DHT22;49949;43.060;25.624;2023-03-11T11:43:17;18.00;93.30
63802;DHT22;49949;43.060;25.624;2023-03-11T11:45:44;18.10;90.60
63802;DHT22;49949;43.060;25.624;2023-03-11T11:48:31;18.20;88.00
63802;DHT22;49949;43.060;25.624;2023-03-11T11:50:59;18.30;92.80
63802;DHT22;49949;43.060;25.624;2023-03-11T11:56:10;18.00;91.10
63802;DHT22;49949;43.060;25.624;2023-03-11T11:58:36;17.90;93.30
63802;DHT22;49949;43.060;25.624;2023-03-11T12:06:34;17.80;92.50
63802;DHT22;49949;43.060;25.624;2023-03-11T12:17:36;18.00;93.80
63802;DHT22;49949;43.060;25.624;2023-03-11T12:20:10;17.90;93.40
63802;DHT22;49949;43.060;25.624;2023-03-11T12:25:44;17.90;96.10
63802;DHT22;49949;43.060;25.624;2023-03-11T12:30:45;17.90;94.10
63802;DHT22;49949;43.060;25.624;2023-03-11T12:33:18;18.00;92.50
63802;DHT22;49949;43.060;25.624;2023-03-11T12:35:57;18.00;94.10
63802;DHT22;49949;43.060;25.624;2023-03-11T12:38:28;18.10;92.90
63802;DHT22;49949;43.060;25.624;2023-03-11T12:40:56;18.20;92.20
63802;DHT22;49949;43.060;25.624;2023-03-11T12:50:55;16.50;97.10
63802;DHT22;49949;43.060;25.624;2023-03-11T12:53:47;15.90;99.40
63802;DHT22;49949;43.060;25.624;2023-03-11T13:06:40;15.30;99.90
63802;DHT22;49949;43.060;25.624;2023-03-11T13:09:13;15.40;99.90
63802;DHT22;49949;43.060;25.624;2023-03-11T13:11:44;15.50;99.90
63802;DHT22;49949;43.060;25.624;2023-03-11T13:16:45;15.90;99.70
63802;DHT22;49949;43.060;25.624;2023-03-11T13:21:57;15.90;99.90
63802;DHT22;49949;43.060;25.624;2023-03-11T13:43:58;16.00;99.30
63802;DHT22;49949;43.060;25.624;2023-03-11T13:46:30;16.10;99.90
63802;DHT22;49949;43.060;25.624;2023-03-11T13:49:23;16.10;99.90
63802;DHT22;49949;43.060;25.624;2023-03-11T13:51:50;16.10;99.90
63802;DHT22;49949;43.060;25.624;2023-03-11T13:54:29;16.00;99.90
63802;DHT22;49949;43.060;25.624;2023-03-11T13:56:57;15.90;99.90
63802;DHT22;49949;43.060;25.624;2023-03-11T13:59:32;15.70;99.90
63802;DHT22;49949;43.060;25.624;2023-03-11T14:04:34;15.80;99.90
63802;DHT22;49949;43.060;25.624;2023-03-11T14:12:36;16.10;99.90
63802;DHT22;49949;43.060;25.624;2023-03-11T14:15:14;16.20;99.90
63802;DHT22;49949;43.060;25.624;2023-03-11T14:17:47;16.10;99.90
63802;DHT22;49949;43.060;25.624;2023-03-11T14:20:19;16.10;99.90
63802;DHT22;49949;43.060;25.624;2023-03-11T14:22:52;16.10;99.90
63802;DHT22;49949;43.060;25.624;2023-03-11T14:25:31;16.10;99.90
63802;DHT22;49949;43.060;25.624;2023-03-11T14:28:04;16.10;99.90
63802;DHT22;49949;43.060;25.624;2023-03-11T14:30:39;16.10;99.90
63802;DHT22;49949;43.060;25.624;2023-03-11T14:33:30;16.10;99.90
63802;DHT22;49949;43.060;25.624;2023-03-11T14:36:01;16.00;99.90
63802;DHT22;49949;43.060;25.624;2023-03-11T14:38:43;15.90;99.90
63802;DHT22;49949;43.060;25.624;2023-03-11T14:41:11;15.90;99.90
63802;DHT22;49949;43.060;25.624;2023-03-11T14:43:55;15.90;99.90
63802;DHT22;49949;43.060;25.624;2023-03-11T14:46:25;15.90;99.90
63802;DHT22;49949;43.060;25.624;2023-03-11T14:48:52;16.00;99.90
63802;DHT22;49949;43.060;25.624;2023-03-11T14:51:20;16.10;99.90
63802;DHT22;49949;43.060;25.624;2023-03-11T14:53:55;16.10;99.90
63802;DHT22;49949;43.060;25.624;2023-03-11T14:56:24;16.10;99.90
63802;DHT22;49949;43.060;25.624;2023-03-11T15:01:43;16.10;99.90
63802;DHT22;49949;43.060;25.624;2023-03-11T15:04:11;16.10;99.90
63802;DHT22;49949;43.060;25.624;2023-03-11T15:06:38;16.00;99.90
63802;DHT22;49949;43.060;25.624;2023-03-11T15:09:06;16.00;99.90
63802;DHT22;49949;43.060;25.624;2023-03-11T15:11:46;15.90;99.90
63802;DHT22;49949;43.060;25.624;2023-03-11T15:14:23;15.90;99.90
63802;DHT22;49949;43.060;25.624;2023-03-11T15:19:33;15.80;99.90
63802;DHT22;49949;43.060;25.624;2023-03-11T15:22:52;15.70;99.90
63802;DHT22;49949;43.060;25.624;2023-03-11T15:24:58;15.60;99.90
63802;DHT22;49949;43.060;25.624;2023-03-11T15:27:30;15.50;99.90
63802;DHT22;49949;43.060;25.624;2023-03-11T15:29:56;15.50;99.90
63802;DHT22;49949;43.060;25.624;2023-03-11T15:32:35;15.40;99.90
63802;DHT22;49949;43.060;25.624;2023-03-11T15:35:11;15.40;99.90
63802;DHT22;49949;43.060;25.624;2023-03-11T15:37:37;15.30;99.90
63802;DHT22;49949;43.060;25.624;2023-03-11T15:45:48;15.10;99.90
63802;DHT22;49949;43.060;25.624;2023-03-11T15:48:24;15.10;99.90
63802;DHT22;49949;43.060;25.624;2023-03-11T15:51:15;15.00;99.90
63802;DHT22;49949;43.060;25.624;2023-03-11T15:53:50;14.90;99.90
63802;DHT22;49949;43.060;25.624;2023-03-11T15:56:21;14.80;99.90
63802;DHT22;49949;43.060;25.624;2023-03-11T15:58:47;14.80;99.90
63802;DHT22;49949;43.060;25.624;2023-03-11T16:01:24;14.70;99.90
63802;DHT22;49949;43.060;25.624;2023-03-11T16:03:54;14.60;99.90
63802;DHT22;49949;43.060;25.624;2023-03-11T16:06:30;14.60;99.90
63802;DHT22;49949;43.060;25.624;2023-03-11T16:08:58;14.50;99.90
63802;DHT22;49949;43.060;25.624;2023-03-11T16:11:23;14.40;99.90
63802;DHT22;49949;43.060;25.624;2023-03-11T16:14:00;14.30;99.90
63802;DHT22;49949;43.060;25.624;2023-03-11T16:16:27;14.20;99.90
63802;DHT22;49949;43.060;25.624;2023-03-11T16:18:54;14.10;99.90
63802;DHT22;49949;43.060;25.624;2023-03-11T16:24:21;14.00;99.90
63802;DHT22;49949;43.060;25.624;2023-03-11T16:26:48;13.80;99.90
63802;DHT22;49949;43.060;25.624;2023-03-11T16:29:16;13.80;99.90
63802;DHT22;49949;43.060;25.624;2023-03-11T16:31:42;13.70;99.90
63802;DHT22;49949;43.060;25.624;2023-03-11T16:37:15;13.60;99.90
63802;DHT22;49949;43.060;25.624;2023-03-11T16:39:54;13.50;99.90
63802;DHT22;49949;43.060;25.624;2023-03-11T16:45:28;13.20;99.90
63802;DHT22;49949;43.060;25.624;2023-03-11T16:47:58;13.00;99.90
63802;DHT22;49949;43.060;25.624;2023-03-11T16:50:24;12.90;99.90
63802;DHT22;49949;43.060;25.624;2023-03-11T16:52:51;12.80;99.90
63802;DHT22;49949;43.060;25.624;2023-03-11T16:55:19;12.70;99.90
63802;DHT22;49949;43.060;25.624;2023-03-11T16:57:57;12.40;99.90
63802;DHT22;49949;43.060;25.624;2023-03-11T17:00:51;12.30;99.90
63802;DHT22;49949;43.060;25.624;2023-03-11T17:03:17;12.10;99.70
63802;DHT22;49949;43.060;25.624;2023-03-11T17:05:45;11.90;99.70
63802;DHT22;49949;43.060;25.624;2023-03-11T17:08:12;11.80;98.10
63802;DHT22;49949;43.060;25.624;2023-03-11T17:10:39;11.70;99.30
63802;DHT22;49949;43.060;25.624;2023-03-11T17:13:08;11.70;98.80
63802;DHT22;49949;43.060;25.624;2023-03-11T17:15:36;11.60;99.50
63802;DHT22;49949;43.060;25.624;2023-03-11T17:18:10;11.60;99.90
63802;DHT22;49949;43.060;25.624;2023-03-11T17:20:39;11.60;99.90
63802;DHT22;49949;43.060;25.624;2023-03-11T17:23:09;11.60;99.90
63802;DHT22;49949;43.060;25.624;2023-03-11T17:25:38;11.60;99.90
63802;DHT22;49949;43.060;25.624;2023-03-11T17:28:03;11.50;99.90
63802;DHT22;49949;43.060;25.624;2023-03-11T17:30:31;11.50;99.90
63802;DHT22;49949;43.060;25.624;2023-03-11T17:32:56;11.40;98.20
63802;DHT22;49949;43.060;25.624;2023-03-11T17:35:22;11.40;97.60
63802;DHT22;49949;43.060;25.624;2023-03-11T17:37:55;11.30;96.10
63802;DHT22;49949;43.060;25.624;2023-03-11T17:40:27;11.30;97.20
63802;DHT22;49949;43.060;25.624;2023-03-11T17:43:02;11.20;97.20
63802;DHT22;49949;43.060;25.624;2023-03-11T17:45:28;11.20;97.50
63802;DHT22;49949;43.060;25.624;2023-03-11T17:47:56;11.20;97.60
63802;DHT22;49949;43.060;25.624;2023-03-11T17:50:22;11.10;97.20
63802;DHT22;49949;43.060;25.624;2023-03-11T17:52:48;11.00;98.10
63802;DHT22;49949;43.060;25.624;2023-03-11T17:55:14;10.90;99.10
63802;DHT22;49949;43.060;25.624;2023-03-11T17:57:40;10.90;98.20
63802;DHT22;49949;43.060;25.624;2023-03-11T18:00:16;10.90;97.90
63802;DHT22;49949;43.060;25.624;2023-03-11T18:02:59;10.80;98.70
63802;DHT22;49949;43.060;25.624;2023-03-11T18:05:27;10.80;99.90
63802;DHT22;49949;43.060;25.624;2023-03-11T18:07:56;10.70;99.90
63802;DHT22;49949;43.060;25.624;2023-03-11T18:10:23;10.70;99.90
63802;DHT22;49949;43.060;25.624;2023-03-11T18:12:55;10.50;99.90
63802;DHT22;49949;43.060;25.624;2023-03-11T18:15:22;10.50;99.90
63802;DHT22;49949;43.060;25.624;2023-03-11T18:17:49;10.50;99.90
63802;DHT22;49949;43.060;25.624;2023-03-11T18:20:17;10.50;99.90
63802;DHT22;49949;43.060;25.624;2023-03-11T18:22:47;10.40;99.90
63802;DHT22;49949;43.060;25.624;2023-03-11T18:25:21;10.40;99.90
63802;DHT22;49949;43.060;25.624;2023-03-11T18:27:47;10.40;99.90